Aérodrome :
LOGIN :

S'inscrire | Disclaimer

   EN    FR    IT 

 










Légende :    VFR   VFR Marginal   IFR   IFR Intensif   IFR Très Intensif
Visi : 
Plafond : 
>= 8 km
>= 3000ft
5 à 8 km
1000 à 3000 ft
1500m à 5 km
500 à 1000 ft
800 à 1500m
200 à 500 ft
< 800m
< 200 ft
Symboles :   Orages  Brouillard  Fortes neiges  Fortes précipitations  Vent > 20 kt
SIGMETs :   Divers  Orages  Givrage  Turbulence  Onde Orograph.  Cendres Volcan.







- Altitude de l'aérodrome : 0 ft


ETEB - Ansbach Army Heliport

DERNIER METAR :
  • 250558Z AUTO 00000KT 9999 BKN055 12/10 A3022 RMK AO2 SLP242 T01200099 10123 20070 53005

METARs EXPIRÉS :
  • 250458Z AUTO 00000KT 8000 BR CLR 10/09 A3021 RMK AO2 SLP241 T00960086
  • 250429Z AUTO 00000KT 5000 BR CLR 08/07 A3020 RMK AO2 SLP237
  • 250421Z AUTO 26003KT 1600 BR CLR 08/07 A3020 RMK AO2 VIS M0400V1600 SLP237 RVRNO
  • 250358Z AUTO 26003KT M0400 FG VV001 07/07 A3020 RMK AO2 SLP239 T00720065 RVRNO
  • 250346Z AUTO 25005KT M0400 FG VV001 08/07 A3020 RMK AO2 VIS M0400V2400 SLP237 RVRNO
  • 250342Z AUTO 25004KT 0400 FG CLR 09/08 A3020 RMK AO2 VIS 0400V2400 SLP237 RVRNO

TAF TAF ETEB
Valide du 25 à 05h jusqu'au 26 à 11h UTC


250502Z 2505/2611 VRB06KT 5000 BR FEW030 QNH3018INS
TEMPO 2505/2507 3200 BR
BECMG 2506/2507 VRB06KT 9999 NSW SCT030 QNH3017INS
BECMG 2519/2520 02006KT 9999 BKN030 QNH3015INS TX21/2515Z TN07/2603Z
Pas de NOTAMs connus pour ce terrain.



MET'MAP, la Météo Aéronautique d'un coup d'oeil ! - Copyright ORBIFLY Décembre 2007 - Disclaimer

ORBIFLY MET'MAP TEAM :

Programmation & Développement : Alexandra Zaïnal
Conception & Développement : Baudouin d'Aumeries
Co-Programmation & Développement : Marc-Olivier Méhu
Soutien technique & logistique : Manuel Goepfert

Contact : metmap@orbifly.com




SOURCES & CREDITS :

   NOAA